Time;durP1;ratioP1;P1;durP2;ratioP2;P2;SDS_P1;SDS_P2;PMS_P1;PMS_P2;Temp;Humidity;BMP_temperature;BMP_pressure;BME280_temperature;BME280_humidity;BME280_pressure;Samples;Min_cycle;Max_cycle;Signal;HPM_P1;HPM_P2
2022/10/21 00:00:59;;;;;;;7.90;7.13;;;10.30;1.00;;;;;;5053773;28;20461;-73
2022/10/21 00:03:25;;;;;;;13.23;7.30;;;10.30;1.00;;;;;;5055029;28;20473;-73
2022/10/21 00:05:51;;;;;;;10.43;8.10;;;10.30;1.00;;;;;;5054903;28;20636;-67
2022/10/21 00:08:18;;;;;;;9.30;7.33;;;10.20;1.00;;;;;;5055140;28;20439;-67
2022/10/21 00:10:44;;;;;;;11.40;7.93;;;10.20;1.00;;;;;;5054864;28;20170;-68
2022/10/21 00:13:10;;;;;;;9.50;7.50;;;10.30;1.00;;;;;;5054856;28;20409;-67
2022/10/21 00:15:36;;;;;;;10.00;8.37;;;10.20;1.00;;;;;;5065678;28;20796;-67
2022/10/21 00:18:03;;;;;;;15.50;9.10;;;10.10;1.00;;;;;;5074848;28;20456;-67
2022/10/21 00:20:28;;;;;;;15.30;8.23;;;10.10;1.00;;;;;;5074285;28;20374;-67
2022/10/21 00:22:54;;;;;;;8.73;7.53;;;10.10;1.00;;;;;;5074668;28;20717;-69
2022/10/21 00:25:19;;;;;;;10.43;8.30;;;10.00;1.00;;;;;;5073838;28;20543;-73
2022/10/21 00:27:45;;;;;;;10.20;8.00;;;10.10;1.00;;;;;;5074801;28;20249;-73
2022/10/21 00:30:12;;;;;;;12.10;8.63;;;10.00;1.00;;;;;;5073925;28;20588;-68
2022/10/21 00:32:37;;;;;;;9.00;8.07;;;10.00;1.00;;;;;;5074569;28;20173;-73
2022/10/21 00:35:04;;;;;;;9.27;7.67;;;10.00;1.00;;;;;;5073723;28;20375;-68
2022/10/21 00:37:31;;;;;;;10.23;7.63;;;10.00;1.00;;;;;;5073840;28;20423;-73
2022/10/21 00:39:57;;;;;;;9.03;8.20;;;10.00;1.00;;;;;;5074323;28;20431;-67
2022/10/21 00:42:32;;;;;;;9.83;8.07;;;10.00;1.00;;;;;;5071033;28;20402;-74
2022/10/21 00:45:01;;;;;;;7.90;7.20;;;9.90;1.00;;;;;;5053521;28;20392;-67
2022/10/21 00:47:27;;;;;;;11.23;8.10;;;9.90;1.00;;;;;;5054273;28;20405;-68
2022/10/21 00:50:02;;;;;;;11.73;8.17;;;9.90;1.00;;;;;;5053820;28;20402;-74
2022/10/21 00:52:32;;;;;;;18.70;8.73;;;9.90;1.00;;;;;;5054178;28;20397;-73
2022/10/21 00:55:01;;;;;;;8.37;7.43;;;9.90;1.00;;;;;;5053245;28;20406;-67
2022/10/21 00:57:29;;;;;;;9.57;8.03;;;9.90;1.00;;;;;;5053174;28;20461;-73
2022/10/21 00:59:59;;;;;;;9.20;8.20;;;9.80;1.00;;;;;;5054271;28;20811;-73
2022/10/21 01:02:26;;;;;;;9.03;8.07;;;9.80;1.00;;;;;;5053947;28;20396;-67
2022/10/21 01:04:55;;;;;;;17.23;8.67;;;9.80;1.00;;;;;;5053007;28;20406;-74
2022/10/21 01:07:20;;;;;;;10.87;7.70;;;9.80;1.00;;;;;;5053865;28;20419;-69
2022/10/21 01:09:46;;;;;;;8.37;7.53;;;9.80;1.00;;;;;;5053815;28;20419;-74
2022/10/21 01:12:54;;;;;;;10.00;8.37;;;9.70;1.00;;;;;;5053865;28;20277;-67
2022/10/21 01:15:24;;;;;;;10.17;8.47;;;9.70;1.00;;;;;;5038603;28;20272;-68
2022/10/21 01:17:56;;;;;;;11.97;8.30;;;9.70;1.00;;;;;;5053590;28;20463;-73
2022/10/21 01:20:52;;;;;;;12.43;8.80;;;9.70;1.00;;;;;;5053839;28;20397;-74
2022/10/21 01:23:39;;;;;;;15.30;8.97;;;9.70;1.00;;;;;;5069249;28;20383;-74
2022/10/21 01:26:28;;;;;;;11.40;7.90;;;9.70;13.50;;;;;;5053193;28;20461;-67
2022/10/21 01:29:20;;;;;;;13.67;9.43;;;9.70;4.70;;;;;;5053678;28;20871;-74
2022/10/21 01:32:04;;;;;;;11.50;9.00;;;9.60;9.90;;;;;;5053596;28;20471;-68
2022/10/21 01:34:44;;;;;;;8.77;7.80;;;9.60;10.50;;;;;;5052364;28;20496;-74
2022/10/21 01:37:25;;;;;;;11.47;8.20;;;9.60;23.60;;;;;;5053469;28;20518;-74
2022/10/21 01:40:00;;;;;;;12.27;9.30;;;9.60;29.70;;;;;;5053404;28;20440;-74
2022/10/21 01:42:40;;;;;;;12.43;9.43;;;9.70;25.70;;;;;;5053641;28;20396;-67
2022/10/21 01:45:15;;;;;;;10.30;8.87;;;9.70;32.70;;;;;;5052580;28;20796;-67
2022/10/21 01:47:49;;;;;;;15.33;8.60;;;9.70;34.80;;;;;;5057145;28;20781;-74
2022/10/21 01:50:20;;;;;;;10.07;8.73;;;9.60;46.60;;;;;;5073419;28;20424;-74
2022/10/21 01:52:49;;;;;;;11.40;8.33;;;9.60;47.80;;;;;;5072841;28;20403;-68
2022/10/21 01:55:20;;;;;;;14.60;9.10;;;9.60;52.60;;;;;;5072629;28;20402;-68
2022/10/21 01:57:51;;;;;;;10.80;8.60;;;9.60;63.50;;;;;;5073177;28;20426;-69
2022/10/21 02:00:18;;;;;;;13.30;8.90;;;9.60;61.10;;;;;;5073285;28;20398;-67
2022/10/21 02:02:47;;;;;;;11.03;9.00;;;9.60;62.50;;;;;;5075687;28;20797;-74
2022/10/21 02:05:20;;;;;;;11.23;8.10;;;9.60;64.70;;;;;;5076415;28;20781;-74
2022/10/21 02:07:47;;;;;;;14.20;8.93;;;9.60;81.90;;;;;;5076823;28;20892;-69
2022/10/21 02:10:13;;;;;;;13.67;10.27;;;9.60;85.40;;;;;;5077234;28;20852;-68
2022/10/21 02:12:41;;;;;;;11.80;9.33;;;9.60;90.30;;;;;;5077353;28;20417;-74
2022/10/21 02:15:09;;;;;;;13.10;9.97;;;9.60;91.90;;;;;;5076205;28;20641;-67
2022/10/21 02:17:37;;;;;;;14.43;9.90;;;9.60;91.90;;;;;;5068874;28;20572;-68
2022/10/21 02:20:06;;;;;;;14.40;8.87;;;9.60;93.30;;;;;;5056925;28;20403;-68
2022/10/21 02:22:35;;;;;;;13.30;9.77;;;9.60;99.90;;;;;;5057387;28;20518;-75
2022/10/21 02:25:15;;;;;;;10.90;8.10;;;9.60;99.90;;;;;;5054225;28;20444;-68
2022/10/21 02:27:41;;;;;;;11.40;8.90;;;9.60;99.90;;;;;;5057000;28;20434;-75
2022/10/21 02:30:07;;;;;;;12.57;9.60;;;9.60;99.90;;;;;;5057669;28;20375;-70
2022/10/21 02:32:47;;;;;;;11.53;9.43;;;9.70;99.90;;;;;;5076716;28;20235;-67
2022/10/21 02:35:38;;;;;;;12.10;9.33;;;9.60;99.90;;;;;;5075940;28;20898;-68
2022/10/21 02:38:25;;;;;;;11.93;9.83;;;9.60;99.90;;;;;;5076760;28;20800;-69
2022/10/21 02:40:56;;;;;;;15.27;9.07;;;9.60;99.90;;;;;;5076967;28;20510;-67
2022/10/21 02:43:30;;;;;;;12.70;9.40;;;9.60;99.90;;;;;;5076684;28;20405;-75
2022/10/21 02:46:05;;;;;;;10.50;9.07;;;9.60;99.90;;;;;;5070040;28;20456;-75
2022/10/21 02:48:35;;;;;;;10.90;9.40;;;9.70;99.90;;;;;;5056321;28;20428;-74
2022/10/21 02:51:04;;;;;;;10.80;9.30;;;9.60;99.90;;;;;;5056590;28;20966;-68
2022/10/21 02:53:29;;;;;;;11.60;9.50;;;9.70;99.90;;;;;;5056238;28;20388;-74
2022/10/21 02:55:55;;;;;;;13.43;9.00;;;9.70;99.90;;;;;;5055712;28;20421;-67
2022/10/21 02:58:21;;;;;;;11.10;8.53;;;9.80;99.90;;;;;;5056093;28;20214;-69
2022/10/21 03:00:46;;;;;;;12.40;9.90;;;9.80;99.90;;;;;;5056222;28;20171;-69
2022/10/21 03:03:12;;;;;;;15.60;9.90;;;9.80;99.90;;;;;;5055804;28;20211;-67
2022/10/21 03:05:38;;;;;;;10.60;9.50;;;9.80;99.90;;;;;;5055140;28;20191;-68
2022/10/21 03:08:04;;;;;;;12.33;9.40;;;9.80;99.90;;;;;;5056175;28;20412;-68
2022/10/21 03:10:29;;;;;;;11.50;9.50;;;9.80;99.90;;;;;;5055980;28;20179;-69
2022/10/21 03:12:55;;;;;;;11.97;9.77;;;9.90;99.90;;;;;;5057115;28;20391;-74
2022/10/21 03:15:21;;;;;;;12.27;10.30;;;9.90;99.90;;;;;;5075090;28;20193;-74
2022/10/21 03:17:47;;;;;;;10.77;9.60;;;9.90;99.90;;;;;;5075919;28;20194;-75
2022/10/21 03:20:13;;;;;;;12.90;9.33;;;9.90;99.90;;;;;;5075495;28;20241;-74
2022/10/21 03:22:38;;;;;;;16.20;9.73;;;9.90;99.90;;;;;;5075777;28;20766;-68
2022/10/21 03:25:05;;;;;;;14.60;10.07;;;9.90;99.90;;;;;;5074758;28;20379;-68
2022/10/21 03:27:30;;;;;;;20.30;9.90;;;9.90;99.90;;;;;;5074024;28;20190;-75
2022/10/21 03:29:56;;;;;;;15.27;8.90;;;9.90;99.90;;;;;;5075769;28;20532;-75
2022/10/21 03:32:22;;;;;;;11.97;9.20;;;10.00;99.90;;;;;;5075672;28;20244;-67
2022/10/21 03:34:47;;;;;;;16.03;10.50;;;10.00;99.90;;;;;;5074664;28;20253;-75
2022/10/21 03:37:13;;;;;;;19.60;10.30;;;10.00;99.90;;;;;;5075518;28;20206;-75
2022/10/21 03:39:39;;;;;;;13.40;9.77;;;10.00;99.90;;;;;;5075311;28;20163;-75
2022/10/21 03:42:04;;;;;;;14.80;10.53;;;10.00;99.90;;;;;;5073951;28;20673;-75
2022/10/21 03:44:30;;;;;;;14.17;10.67;;;10.10;99.90;;;;;;5074787;28;20167;-74
2022/10/21 03:46:56;;;;;;;14.07;11.43;;;10.10;99.90;;;;;;5075447;28;20673;-67
2022/10/21 03:49:22;;;;;;;13.80;10.60;;;10.10;99.90;;;;;;5075590;28;20171;-74
2022/10/21 03:51:48;;;;;;;18.23;10.87;;;10.10;99.90;;;;;;5074322;28;20161;-74
2022/10/21 03:54:13;;;;;;;18.73;10.23;;;10.10;99.90;;;;;;5074319;28;20769;-68
2022/10/21 03:56:39;;;;;;;15.77;10.07;;;10.10;99.90;;;;;;5075278;28;20391;-69
2022/10/21 03:59:05;;;;;;;12.60;10.27;;;10.10;99.90;;;;;;5074679;28;20206;-75
2022/10/21 04:01:30;;;;;;;12.00;10.20;;;10.10;99.90;;;;;;5074014;28;20198;-67
2022/10/21 04:03:56;;;;;;;13.67;10.70;;;10.20;99.90;;;;;;5074152;28;20857;-75
2022/10/21 04:06:22;;;;;;;16.13;11.37;;;10.20;99.90;;;;;;5073782;28;20663;-74
2022/10/21 04:08:47;;;;;;;12.47;9.53;;;10.20;99.90;;;;;;5055057;28;20167;-75
2022/10/21 04:11:13;;;;;;;13.53;10.40;;;10.20;99.90;;;;;;5055004;28;20501;-75
2022/10/21 04:13:38;;;;;;;18.33;10.90;;;10.20;99.90;;;;;;5052771;28;20606;-69
2022/10/21 04:16:07;;;;;;;14.87;10.60;;;10.30;99.90;;;;;;5054498;28;20751;-75
2022/10/21 04:18:33;;;;;;;13.13;10.00;;;10.20;99.90;;;;;;5054698;28;20224;-75
2022/10/21 04:20:59;;;;;;;20.83;11.53;;;10.20;99.90;;;;;;5054703;28;20395;-68
2022/10/21 04:23:24;;;;;;;23.47;11.47;;;10.20;99.90;;;;;;5054004;28;20379;-67
2022/10/21 04:25:50;;;;;;;14.07;9.83;;;10.30;99.90;;;;;;5053562;28;20194;-75
2022/10/21 04:28:16;;;;;;;12.10;10.20;;;10.20;99.90;;;;;;5054616;28;20194;-75
2022/10/21 04:30:41;;;;;;;13.27;11.13;;;10.30;99.90;;;;;;5070066;28;20269;-75
2022/10/21 04:33:07;;;;;;;18.17;11.43;;;10.30;99.90;;;;;;5053985;28;20407;-75
2022/10/21 04:35:33;;;;;;;15.33;10.17;;;10.40;99.90;;;;;;5053663;28;20241;-75
2022/10/21 04:37:59;;;;;;;16.60;11.73;;;10.40;99.90;;;;;;5054649;28;20222;-67
2022/10/21 04:40:25;;;;;;;12.97;10.00;;;10.40;99.90;;;;;;5054580;28;20624;-67
2022/10/21 04:42:52;;;;;;;14.37;10.83;;;10.40;99.90;;;;;;5054538;28;20722;-75
2022/10/21 04:45:17;;;;;;;12.77;10.50;;;10.40;99.90;;;;;;5053291;28;20435;-69
2022/10/21 04:47:43;;;;;;;11.00;8.80;;;10.40;99.90;;;;;;5069679;28;20397;-75
2022/10/21 04:50:09;;;;;;;15.67;10.37;;;10.50;99.90;;;;;;5054054;28;20182;-75
2022/10/21 04:52:36;;;;;;;15.20;10.70;;;10.50;99.90;;;;;;5054262;28;20171;-75
2022/10/21 04:55:02;;;;;;;16.00;10.40;;;10.50;99.90;;;;;;5053305;28;20849;-68
2022/10/21 04:57:27;;;;;;;18.43;10.83;;;10.50;99.90;;;;;;5054021;28;20929;-67
2022/10/21 04:59:53;;;;;;;13.87;11.23;;;10.50;99.90;;;;;;5052831;28;20392;-75
2022/10/21 05:02:19;;;;;;;15.63;10.60;;;10.50;99.90;;;;;;5057065;28;20530;-68
2022/10/21 05:04:44;;;;;;;21.20;11.37;;;10.60;99.90;;;;;;5072935;28;20178;-68
2022/10/21 05:07:10;;;;;;;14.67;10.90;;;10.60;99.90;;;;;;5073331;28;20182;-75
2022/10/21 05:09:36;;;;;;;12.93;11.20;;;10.60;99.90;;;;;;5073852;28;20253;-75
2022/10/21 05:12:01;;;;;;;17.80;11.17;;;10.60;99.90;;;;;;5073973;28;20170;-67
2022/10/21 05:14:27;;;;;;;13.10;10.17;;;10.60;99.90;;;;;;5072821;28;20170;-68
2022/10/21 05:16:53;;;;;;;19.50;11.93;;;10.60;99.90;;;;;;5064002;28;20226;-75
2022/10/21 05:19:18;;;;;;;14.70;10.27;;;10.60;99.90;;;;;;5068992;28;20285;-75
2022/10/21 05:21:45;;;;;;;23.20;10.83;;;10.60;99.90;;;;;;5053603;28;20178;-75
2022/10/21 05:24:12;;;;;;;13.87;10.90;;;10.70;99.90;;;;;;5052406;28;20155;-68
2022/10/21 05:26:38;;;;;;;15.43;9.73;;;10.60;99.90;;;;;;5069164;28;20515;-67
2022/10/21 05:29:04;;;;;;;11.47;9.03;;;10.70;99.90;;;;;;5054512;28;20430;-68
2022/10/21 05:31:29;;;;;;;16.97;10.67;;;10.70;99.90;;;;;;5073443;28;20534;-75
2022/10/21 05:33:56;;;;;;;14.83;9.70;;;10.60;99.90;;;;;;5071636;28;20231;-75
2022/10/21 05:36:21;;;;;;;13.40;9.77;;;10.60;99.90;;;;;;5073467;28;20186;-68
2022/10/21 05:38:47;;;;;;;22.63;12.77;;;10.60;99.90;;;;;;5073517;28;20422;-78
2022/10/21 05:41:13;;;;;;;19.13;10.33;;;10.60;99.90;;;;;;5073742;28;20158;-78
2022/10/21 05:43:39;;;;;;;14.37;10.73;;;10.60;99.90;;;;;;5071700;28;20638;-73
2022/10/21 05:46:06;;;;;;;14.80;10.90;;;10.60;99.90;;;;;;5053593;28;20571;-71
2022/10/21 05:48:32;;;;;;;12.53;9.10;;;10.60;99.90;;;;;;5053494;28;20497;-78
2022/10/21 05:50:58;;;;;;;12.90;10.87;;;10.60;99.90;;;;;;5053315;28;20367;-75
2022/10/21 05:53:23;;;;;;;19.03;12.00;;;10.60;99.90;;;;;;5053223;28;20228;-68
2022/10/21 05:56:03;;;;;;;13.30;10.80;;;10.60;99.90;;;;;;5060308;28;20194;-74
2022/10/21 05:58:31;;;;;;;15.13;11.43;;;10.60;99.90;;;;;;5071713;28;20608;-68
2022/10/21 06:00:57;;;;;;;11.73;10.10;;;10.60;99.90;;;;;;5077698;28;20442;-75
2022/10/21 06:03:28;;;;;;;14.90;9.70;;;10.60;99.90;;;;;;5073155;28;20412;-75
2022/10/21 06:05:58;;;;;;;23.40;12.30;;;10.60;99.90;;;;;;5072369;28;20422;-67
2022/10/21 06:08:24;;;;;;;13.13;9.47;;;10.60;99.90;;;;;;5073364;28;20873;-75
2022/10/21 06:10:59;;;;;;;12.97;10.80;;;10.60;99.90;;;;;;5073230;28;20381;-75
2022/10/21 06:13:25;;;;;;;13.87;9.30;;;10.60;99.90;;;;;;5072908;28;20360;-67
2022/10/21 06:15:50;;;;;;;15.80;11.73;;;10.60;99.90;;;;;;5052322;28;20461;-75
2022/10/21 06:18:16;;;;;;;14.80;10.97;;;10.60;99.90;;;;;;5052535;28;20225;-67
2022/10/21 06:20:41;;;;;;;17.13;12.00;;;10.60;99.90;;;;;;5053240;28;20167;-75
2022/10/21 06:23:07;;;;;;;16.53;11.80;;;10.60;99.90;;;;;;5052968;28;20190;-67
2022/10/21 06:25:33;;;;;;;15.30;11.20;;;10.60;99.90;;;;;;5052070;28;20265;-74
2022/10/21 06:27:58;;;;;;;13.50;10.87;;;10.60;99.90;;;;;;5059670;28;20183;-66
2022/10/21 06:30:24;;;;;;;16.33;11.00;;;10.60;99.90;;;;;;5071693;28;20193;-74
2022/10/21 06:32:50;;;;;;;17.37;11.87;;;10.50;99.90;;;;;;5072944;28;20196;-75
2022/10/21 06:35:15;;;;;;;12.20;10.30;;;10.50;99.90;;;;;;5071605;28;20238;-74
2022/10/21 06:37:41;;;;;;;15.33;10.83;;;10.50;99.90;;;;;;5072831;28;20423;-75
2022/10/21 06:40:07;;;;;;;17.87;10.80;;;10.50;99.90;;;;;;5071432;28;20193;-69
2022/10/21 06:42:33;;;;;;;16.10;11.17;;;10.50;99.90;;;;;;5073312;28;20166;-75
2022/10/21 06:44:59;;;;;;;16.53;11.87;;;10.50;99.90;;;;;;5058445;28;20810;-68
2022/10/21 06:47:24;;;;;;;20.13;13.13;;;10.50;99.90;;;;;;5054146;28;20171;-68
2022/10/21 06:49:50;;;;;;;14.53;10.57;;;10.50;99.90;;;;;;5056898;28;20186;-75
2022/10/21 06:52:15;;;;;;;14.70;11.17;;;10.50;99.90;;;;;;5056544;28;20182;-74
2022/10/21 06:54:41;;;;;;;15.50;10.50;;;10.60;99.90;;;;;;5055215;28;20523;-68
2022/10/21 06:57:07;;;;;;;17.20;11.90;;;10.60;99.90;;;;;;5056276;28;20695;-68
2022/10/21 06:59:32;;;;;;;19.90;12.10;;;10.60;99.90;;;;;;5056453;28;20493;-75
2022/10/21 07:01:58;;;;;;;12.80;10.40;;;10.60;99.90;;;;;;5056486;28;20163;-69
2022/10/21 07:04:24;;;;;;;13.17;11.70;;;10.60;99.90;;;;;;5064626;28;20654;-74
2022/10/21 07:06:49;;;;;;;18.23;11.70;;;10.70;99.90;;;;;;5074786;28;20280;-68
2022/10/21 07:09:15;;;;;;;15.77;11.73;;;10.70;99.90;;;;;;5076187;28;20174;-68
2022/10/21 07:11:41;;;;;;;16.77;11.40;;;10.70;99.90;;;;;;5074881;28;20174;-74
2022/10/21 07:14:06;;;;;;;16.87;10.70;;;10.80;99.90;;;;;;5075194;28;20379;-75
2022/10/21 07:16:34;;;;;;;15.03;10.97;;;10.80;99.90;;;;;;5075968;28;20257;-75
2022/10/21 07:19:00;;;;;;;16.60;9.83;;;10.80;99.90;;;;;;5074781;28;20233;-74
2022/10/21 07:21:27;;;;;;;14.07;11.40;;;10.90;99.90;;;;;;5076128;28;20439;-75
2022/10/21 07:23:54;;;;;;;18.10;11.17;;;10.90;99.90;;;;;;5074951;28;20166;-69
2022/10/21 07:26:22;;;;;;;18.73;12.53;;;10.90;99.90;;;;;;5075769;28;20420;-69
2022/10/21 07:28:48;;;;;;;17.37;12.13;;;10.90;99.90;;;;;;5074081;28;20412;-75
2022/10/21 07:31:15;;;;;;;17.17;11.30;;;10.90;99.90;;;;;;5074393;28;20771;-74
2022/10/21 07:33:41;;;;;;;19.90;12.60;;;10.90;99.90;;;;;;5074959;28;20166;-75
2022/10/21 07:36:08;;;;;;;15.37;11.30;;;10.90;99.90;;;;;;5074321;28;20405;-68
2022/10/21 07:38:34;;;;;;;13.73;10.83;;;10.90;99.90;;;;;;5075419;28;20509;-75
2022/10/21 07:41:00;;;;;;;18.90;12.17;;;10.90;99.90;;;;;;5075487;28;20391;-68
2022/10/21 07:43:26;;;;;;;19.47;11.30;;;11.00;99.90;;;;;;5074054;28;20201;-69
2022/10/21 07:45:52;;;;;;;18.07;11.03;;;10.90;99.90;;;;;;5064352;28;20836;-71
2022/10/21 07:48:18;;;;;;;23.10;11.50;;;11.00;99.90;;;;;;5054385;28;20440;-69
2022/10/21 07:50:44;;;;;;;15.50;11.20;;;11.10;99.90;;;;;;5070946;28;20620;-68
2022/10/21 07:53:10;;;;;;;14.70;11.23;;;11.10;99.90;;;;;;5055396;28;20174;-69
2022/10/21 07:55:36;;;;;;;16.57;11.30;;;11.10;99.90;;;;;;5054377;28;20418;-74
2022/10/21 07:58:03;;;;;;;14.90;11.70;;;11.20;99.90;;;;;;5055329;28;20219;-75
2022/10/21 08:00:29;;;;;;;17.33;11.90;;;11.20;99.90;;;;;;5070421;28;20299;-74
2022/10/21 08:02:55;;;;;;;16.80;12.53;;;11.20;99.90;;;;;;5054608;28;20435;-73
2022/10/21 08:05:22;;;;;;;19.53;13.07;;;11.30;99.90;;;;;;5054170;28;20690;-68
2022/10/21 08:07:48;;;;;;;18.43;12.60;;;11.30;99.90;;;;;;5055086;28;20801;-75
2022/10/21 08:10:14;;;;;;;13.10;11.30;;;11.30;99.90;;;;;;5055139;28;20878;-75
2022/10/21 08:12:40;;;;;;;18.90;11.70;;;11.40;99.90;;;;;;5053664;28;20467;-69
2022/10/21 08:15:06;;;;;;;21.70;12.93;;;11.40;99.90;;;;;;5058351;28;20568;-75
2022/10/21 08:17:32;;;;;;;13.17;10.03;;;11.40;99.90;;;;;;5070150;28;20202;-74
2022/10/21 08:19:58;;;;;;;18.97;12.20;;;11.40;99.90;;;;;;5072387;28;20768;-70
2022/10/21 08:22:24;;;;;;;21.00;13.67;;;11.50;99.90;;;;;;5090315;28;20174;-68
2022/10/21 08:24:50;;;;;;;16.57;11.20;;;11.50;99.90;;;;;;5089521;28;20383;-75
2022/10/21 08:27:15;;;;;;;16.70;11.17;;;11.50;99.90;;;;;;5073241;28;20190;-75
2022/10/21 08:29:41;;;;;;;17.73;13.03;;;11.50;99.90;;;;;;5073242;28;20174;-75
2022/10/21 08:32:07;;;;;;;18.03;12.23;;;11.60;99.90;;;;;;5074504;28;20264;-75
2022/10/21 08:34:33;;;;;;;16.50;11.87;;;11.60;99.90;;;;;;5061977;28;20237;-75
2022/10/21 08:36:58;;;;;;;14.47;11.43;;;11.60;99.90;;;;;;5053912;28;20453;-75
2022/10/21 08:39:24;;;;;;;22.80;12.70;;;11.60;99.90;;;;;;5054297;28;20205;-74
2022/10/21 08:42:03;;;;;;;12.97;11.33;;;11.60;99.90;;;;;;5054581;28;20242;-68
2022/10/21 08:44:38;;;;;;;18.63;11.83;;;11.70;99.90;;;;;;5063141;28;20189;-74
2022/10/21 08:47:13;;;;;;;17.00;11.63;;;11.70;99.90;;;;;;5073255;28;20497;-75
2022/10/21 08:49:57;;;;;;;17.57;11.30;;;11.70;99.90;;;;;;5073145;28;20386;-68
2022/10/21 08:52:30;;;;;;;12.47;10.50;;;11.80;99.90;;;;;;5074414;28;20800;-74
2022/10/21 08:55:01;;;;;;;14.60;11.90;;;11.80;99.90;;;;;;5073171;28;20375;-74
2022/10/21 08:57:27;;;;;;;16.90;12.00;;;11.80;99.90;;;;;;5073532;28;20422;-68
2022/10/21 08:59:55;;;;;;;15.90;11.50;;;11.80;99.90;;;;;;5073094;28;20434;-68
2022/10/21 09:02:39;;;;;;;18.33;11.93;;;11.90;99.90;;;;;;5072718;28;20415;-74
2022/10/21 09:05:13;;;;;;;19.47;11.93;;;12.00;99.90;;;;;;5073052;28;20627;-68
2022/10/21 09:08:09;;;;;;;14.90;10.90;;;12.00;99.90;;;;;;5072974;28;20394;-74
2022/10/21 09:11:01;;;;;;;14.40;11.43;;;12.20;99.90;;;;;;5072510;28;20391;-68
2022/10/21 09:13:29;;;;;;;17.70;12.50;;;12.20;99.90;;;;;;5072322;28;20435;-70
2022/10/21 09:16:24;;;;;;;19.53;13.40;;;12.20;99.90;;;;;;5072605;28;20503;-74
2022/10/21 09:19:16;;;;;;;18.57;12.03;;;12.30;99.90;;;;;;5066491;28;20485;-69
2022/10/21 09:21:50;;;;;;;14.70;10.80;;;12.40;99.90;;;;;;5073669;28;20408;-69
2022/10/21 09:24:34;;;;;;;15.80;11.60;;;12.40;99.90;;;;;;5071762;28;20463;-74
2022/10/21 09:27:03;;;;;;;15.67;10.87;;;12.40;99.20;;;;;;5073513;28;20478;-69
2022/10/21 09:29:44;;;;;;;16.93;10.50;;;12.40;95.00;;;;;;5053610;28;20511;-69
2022/10/21 09:32:21;;;;;;;16.80;11.00;;;12.40;91.50;;;;;;5052446;28;20379;-69
2022/10/21 09:35:13;;;;;;;16.37;11.87;;;12.50;94.90;;;;;;5052376;28;20401;-73
2022/10/21 09:37:47;;;;;;;11.60;9.60;;;12.50;94.70;;;;;;5053280;28;20956;-72
2022/10/21 09:40:17;;;;;;;19.03;11.60;;;12.60;93.70;;;;;;5053719;28;20401;-73
2022/10/21 09:42:44;;;;;;;14.40;10.07;;;12.60;92.00;;;;;;5053526;28;20782;-73
2022/10/21 09:45:34;;;;;;;15.30;11.93;;;12.70;93.40;;;;;;5052455;28;20372;-68
2022/10/21 09:48:14;;;;;;;16.43;11.17;;;12.70;95.90;;;;;;5053500;28;20377;-69
2022/10/21 09:50:40;;;;;;;16.00;11.47;;;12.70;91.00;;;;;;5051990;28;20911;-68
2022/10/21 09:53:22;;;;;;;17.10;12.40;;;12.70;89.80;;;;;;5052884;28;20401;-72
2022/10/21 09:55:54;;;;;;;14.83;11.13;;;12.70;87.40;;;;;;5064909;28;20495;-68
2022/10/21 09:59:01;;;;;;;16.70;11.03;;;12.80;84.00;;;;;;5073101;28;20455;-68
2022/10/21 10:01:27;;;;;;;15.13;11.10;;;12.80;84.30;;;;;;5056249;28;20415;-69
2022/10/21 10:03:53;;;;;;;12.57;11.10;;;12.80;83.40;;;;;;5072387;28;20439;-68
2022/10/21 10:06:37;;;;;;;15.30;11.33;;;12.90;82.70;;;;;;5073286;28;20399;-68
2022/10/21 10:09:15;;;;;;;17.47;11.33;;;12.90;77.10;;;;;;5060657;28;20187;-68
2022/10/21 10:12:09;;;;;;;24.03;12.70;;;12.90;81.90;;;;;;5053198;28;20754;-69
2022/10/21 10:14:40;;;;;;;15.27;11.40;;;13.00;82.70;;;;;;5047329;28;20480;-68
2022/10/21 10:17:28;;;;;;;18.80;12.17;;;13.10;79.50;;;;;;5068270;28;20448;-69
2022/10/21 10:20:03;;;;;;;17.43;11.43;;;13.20;71.20;;;;;;5051637;28;20513;-69
2022/10/21 10:22:42;;;;;;;20.43;13.30;;;13.40;70.30;;;;;;5054412;28;20436;-67
2022/10/21 10:25:13;;;;;;;17.10;11.57;;;13.40;60.70;;;;;;5056034;28;20449;-68
2022/10/21 10:27:46;;;;;;;19.70;12.50;;;13.50;62.40;;;;;;5055708;28;20743;-70
2022/10/21 10:30:14;;;;;;;16.03;12.17;;;13.70;60.30;;;;;;5092296;28;20843;-68
2022/10/21 10:32:40;;;;;;;15.80;11.73;;;13.80;62.30;;;;;;5057126;28;20922;-69
2022/10/21 10:35:16;;;;;;;13.53;10.70;;;13.80;28.60;;;;;;5055873;28;20958;-69
2022/10/21 10:37:46;;;;;;;14.23;10.90;;;13.90;32.80;;;;;;5072249;28;20533;-70
2022/10/21 10:40:21;;;;;;;15.63;12.03;;;14.10;9.80;;;;;;5056655;28;20380;-69
2022/10/21 10:42:46;;;;;;;12.40;9.80;;;14.30;1.40;;;;;;5084451;28;20441;-68
2022/10/21 10:45:18;;;;;;;20.70;11.63;;;14.40;3.50;;;;;;5074666;28;20519;-69
2022/10/21 10:47:49;;;;;;;17.00;10.90;;;14.60;3.00;;;;;;5076106;28;20166;-70
2022/10/21 10:50:37;;;;;;;14.30;10.50;;;14.70;1.00;;;;;;5075652;28;20409;-69
2022/10/21 10:53:32;;;;;;;19.90;11.40;;;14.70;1.00;;;;;;5075568;28;20407;-69
2022/10/21 10:56:22;;;;;;;20.37;10.50;;;14.70;1.00;;;;;;5055302;28;20521;-69
2022/10/21 10:58:55;;;;;;;14.50;11.60;;;14.70;1.00;;;;;;5071800;28;20445;-68
2022/10/21 11:01:29;;;;;;;14.93;11.50;;;14.60;1.00;;;;;;5056520;28;20735;-68
2022/10/21 11:04:17;;;;;;;13.87;11.03;;;14.70;1.00;;;;;;5070503;28;20436;-69
2022/10/21 11:06:59;;;;;;;19.80;11.70;;;14.70;1.00;;;;;;5056267;28;20417;-69
2022/10/21 11:09:25;;;;;;;17.20;10.50;;;14.60;1.00;;;;;;5056172;28;20526;-68
2022/10/21 11:11:54;;;;;;;16.60;10.80;;;14.60;1.00;;;;;;5056128;28;20948;-68
2022/10/21 11:14:21;;;;;;;16.13;11.87;;;14.60;1.00;;;;;;5055173;28;20409;-69
2022/10/21 11:17:05;;;;;;;17.70;11.13;;;14.60;1.00;;;;;;5056218;28;20421;-68
2022/10/21 11:19:48;;;;;;;16.47;11.07;;;14.70;1.00;;;;;;5055982;28;20448;-68
2022/10/21 11:22:27;;;;;;;17.97;11.33;;;14.80;1.00;;;;;;5055478;28;20866;-68
2022/10/21 11:25:21;;;;;;;12.80;11.47;;;14.90;1.00;;;;;;5070634;28;20481;-69
2022/10/21 11:27:58;;;;;;;14.80;11.20;;;15.00;1.00;;;;;;5075910;28;20430;-68
2022/10/21 11:30:48;;;;;;;16.10;10.53;;;15.30;1.00;;;;;;5074756;28;20451;-71
2022/10/21 11:33:37;;;;;;;15.57;10.70;;;15.50;1.00;;;;;;5074378;28;20395;-68
2022/10/21 11:36:18;;;;;;;15.37;11.17;;;15.60;1.00;;;;;;5074983;28;20437;-70
2022/10/21 11:39:03;;;;;;;13.63;10.40;;;15.60;1.00;;;;;;5057278;28;20475;-70
2022/10/21 11:41:29;;;;;;;11.07;9.80;;;15.70;1.00;;;;;;5055500;28;20404;-71
2022/10/21 11:43:55;;;;;;;13.60;10.17;;;15.50;1.00;;;;;;5054640;28;20409;-68
2022/10/21 11:46:27;;;;;;;17.47;11.63;;;15.40;1.00;;;;;;5054101;28;20440;-68
2022/10/21 11:49:29;;;;;;;16.70;12.17;;;15.30;1.00;;;;;;5054216;28;20270;-67
2022/10/21 11:51:55;;;;;;;12.97;10.50;;;15.20;1.00;;;;;;5075133;28;20440;-69
2022/10/21 11:54:43;;;;;;;14.53;10.03;;;15.10;1.00;;;;;;5074501;28;20415;-70
2022/10/21 11:57:18;;;;;;;13.13;10.80;;;15.10;1.00;;;;;;5074146;28;20205;-67
2022/10/21 11:59:54;;;;;;;16.07;12.60;;;15.10;1.00;;;;;;5074995;28;20403;-68
2022/10/21 12:02:23;;;;;;;17.63;12.50;;;15.00;1.00;;;;;;5074064;28;20427;-69
2022/10/21 12:05:01;;;;;;;12.50;11.20;;;14.90;1.00;;;;;;5072909;28;20396;-70
2022/10/21 12:07:34;;;;;;;13.53;11.07;;;14.90;1.00;;;;;;5073872;28;20935;-69
2022/10/21 12:10:15;;;;;;;16.53;11.63;;;15.00;1.00;;;;;;5075038;28;20746;-68
2022/10/21 12:12:45;;;;;;;14.47;11.00;;;15.00;1.00;;;;;;5073951;28;20392;-69
2022/10/21 12:15:21;;;;;;;15.50;10.57;;;15.10;1.00;;;;;;5074086;28;20397;-70
2022/10/21 12:17:48;;;;;;;13.57;9.33;;;15.10;1.00;;;;;;5073138;28;20982;-69
2022/10/21 12:20:21;;;;;;;17.13;10.33;;;15.10;1.00;;;;;;5067166;28;20763;-70
2022/10/21 12:22:48;;;;;;;14.30;11.13;;;15.10;1.00;;;;;;5054776;28;20394;-71
2022/10/21 12:25:13;;;;;;;12.50;10.00;;;15.10;1.00;;;;;;5053798;28;20467;-68
2022/10/21 12:27:51;;;;;;;15.57;10.00;;;15.10;1.00;;;;;;5065632;28;20432;-68
2022/10/21 12:30:26;;;;;;;16.83;10.50;;;15.10;1.00;;;;;;5087322;28;20181;-69
2022/10/21 12:33:13;;;;;;;16.50;10.30;;;15.30;1.00;;;;;;5066488;28;20994;-67
2022/10/21 12:35:49;;;;;;;13.80;9.80;;;15.40;1.00;;;;;;5081801;28;20786;-68
2022/10/21 12:38:38;;;;;;;15.60;11.30;;;15.80;1.00;;;;;;5070643;28;20455;-68
2022/10/21 12:41:31;;;;;;;15.47;10.67;;;16.10;1.00;;;;;;5074367;28;20471;-70
2022/10/21 12:43:59;;;;;;;14.10;8.80;;;16.70;1.00;;;;;;5072197;28;20981;-68
2022/10/21 12:46:49;;;;;;;12.70;9.20;;;17.10;1.00;;;;;;5072127;28;20456;-71
2022/10/21 12:49:18;;;;;;;10.70;9.60;;;17.40;99.90;;;;;;5074283;28;20413;-68
2022/10/21 12:52:10;;;;;;;10.70;8.60;;;17.50;99.90;;;;;;5074143;28;20397;-69
2022/10/21 12:55:11;;;;;;;12.50;9.80;;;17.60;99.90;;;;;;5066032;28;20424;-70